Time;durP1;ratioP1;P1;durP2;ratioP2;P2;SDS_P1;SDS_P2;PMS_P1;PMS_P2;Temp;Humidity;BMP_temperature;BMP_pressure;BME280_temperature;BME280_humidity;BME280_pressure;Samples;Min_cycle;Max_cycle;Signal;HPM_P1;HPM_P2
2022/05/30 00:01:32;;;;;;;5.50;1.42;;;7.30;99.90;;;;;;5052160;28;20459;-41
2022/05/30 00:03:58;;;;;;;8.82;1.48;;;8.70;99.90;;;;;;5052710;28;20068;-40
2022/05/30 00:06:25;;;;;;;5.25;1.30;;;8.20;99.90;;;;;;5053095;28;20431;-41
2022/05/30 00:08:51;;;;;;;6.75;1.45;;;7.40;99.90;;;;;;5033561;28;20119;-40
2022/05/30 00:11:18;;;;;;;6.78;1.30;;;7.30;99.90;;;;;;5051088;28;20110;-40
2022/05/30 00:13:44;;;;;;;6.70;1.27;;;7.30;99.90;;;;;;5052528;28;20430;-40
2022/05/30 00:16:12;;;;;;;5.68;1.30;;;8.40;99.90;;;;;;5052128;28;20028;-40
2022/05/30 00:18:39;;;;;;;6.97;1.27;;;7.20;99.90;;;;;;5051397;28;20051;-41
2022/05/30 00:21:07;;;;;;;7.88;1.63;;;7.30;99.90;;;;;;5049874;28;20036;-40
2022/05/30 00:23:35;;;;;;;10.48;1.45;;;7.20;99.90;;;;;;5033931;28;20131;-40
2022/05/30 00:26:03;;;;;;;9.15;1.20;;;7.20;99.90;;;;;;5053260;28;20129;-44
2022/05/30 00:28:29;;;;;;;5.95;1.10;;;7.30;99.90;;;;;;5022512;28;20049;-41
2022/05/30 00:30:55;;;;;;;6.97;2.15;;;7.00;99.90;;;;;;5052262;28;20039;-40
2022/05/30 00:33:21;;;;;;;7.30;1.83;;;7.20;99.90;;;;;;5047486;28;20033;-40
2022/05/30 00:35:46;;;;;;;5.68;1.27;;;7.10;99.90;;;;;;5054016;28;20425;-40
2022/05/30 00:38:14;;;;;;;6.57;1.30;;;7.10;99.90;;;;;;5030247;28;20063;-39
2022/05/30 00:40:41;;;;;;;5.57;1.40;;;7.00;99.90;;;;;;5052322;28;20040;-41
2022/05/30 00:43:18;;;;;;;8.50;1.60;;;7.90;99.90;;;;;;5051931;28;20904;-49
2022/05/30 00:45:43;;;;;;;6.20;1.15;;;7.20;99.90;;;;;;5051896;28;20611;-40
2022/05/30 00:48:09;;;;;;;4.85;1.40;;;7.20;99.90;;;;;;5051309;28;20070;-40
2022/05/30 00:50:36;;;;;;;5.57;1.10;;;7.50;99.90;;;;;;5052293;28;20675;-39
2022/05/30 00:53:02;;;;;;;6.03;1.33;;;7.20;99.90;;;;;;5052537;28;20448;-40
2022/05/30 00:55:28;;;;;;;9.15;1.55;;;7.30;99.90;;;;;;5052465;28;20086;-41
2022/05/30 00:57:56;;;;;;;6.35;1.27;;;7.20;99.90;;;;;;5052668;28;20043;-39
2022/05/30 01:00:25;;;;;;;8.40;1.38;;;7.40;99.90;;;;;;5051872;28;20089;-40
2022/05/30 01:08:26;;;;;;;5.53;1.50;;;7.50;99.90;;;;;;5051556;28;20182;-40
2022/05/30 01:10:53;;;;;;;4.97;1.25;;;8.70;99.90;;;;;;5050828;28;20056;-40
2022/05/30 01:13:18;;;;;;;5.00;1.10;;;8.30;99.90;;;;;;5051071;28;20055;-40
2022/05/30 01:15:44;;;;;;;4.43;1.17;;;8.80;99.90;;;;;;5051232;28;20028;-40
2022/05/30 01:18:40;;;;;;;5.50;1.20;;;8.90;99.90;;;;;;5051733;28;20049;-40
2022/05/30 01:21:09;;;;;;;4.22;1.10;;;7.50;99.90;;;;;;5051744;28;20652;-40
2022/05/30 01:23:48;;;;;;;6.80;1.10;;;7.60;99.90;;;;;;5050718;28;20469;-39
2022/05/30 01:26:47;;;;;;;5.18;1.02;;;7.50;99.90;;;;;;5052049;28;20567;-40
2022/05/30 01:29:27;;;;;;;7.57;1.38;;;7.60;99.90;;;;;;5047298;28;20055;-42
2022/05/30 01:31:58;;;;;;;3.83;1.20;;;7.50;99.90;;;;;;5050642;28;20075;-41
2022/05/30 01:34:25;;;;;;;4.03;1.17;;;7.60;99.90;;;;;;5035336;28;20053;-40
2022/05/30 01:36:52;;;;;;;7.18;1.38;;;7.60;99.90;;;;;;5053208;28;20051;-48
2022/05/30 01:39:19;;;;;;;6.35;1.40;;;7.60;99.90;;;;;;5034936;28;20078;-41
2022/05/30 01:41:45;;;;;;;2.97;1.00;;;7.60;99.90;;;;;;5035620;28;20331;-41
2022/05/30 01:44:10;;;;;;;5.78;1.17;;;7.60;99.90;;;;;;5051967;28;20064;-40
2022/05/30 01:46:36;;;;;;;5.88;1.10;;;7.50;99.90;;;;;;5054078;28;20123;-39
2022/05/30 01:49:04;;;;;;;5.00;1.10;;;9.40;99.90;;;;;;5052267;28;20040;-40
2022/05/30 01:51:30;;;;;;;5.78;1.35;;;8.20;99.90;;;;;;5052599;28;20036;-40
2022/05/30 01:53:55;;;;;;;4.32;1.10;;;7.50;99.90;;;;;;5053409;28;20237;-41
2022/05/30 01:56:24;;;;;;;5.60;1.20;;;7.50;99.90;;;;;;5052140;28;20204;-40
2022/05/30 01:58:50;;;;;;;7.22;1.23;;;7.60;99.90;;;;;;5051750;28;20133;-40
2022/05/30 02:01:22;;;;;;;6.65;1.15;;;7.30;99.90;;;;;;5052322;28;20144;-40
2022/05/30 02:03:51;;;;;;;9.75;2.15;;;8.10;99.90;;;;;;5052589;28;20074;-40
2022/05/30 02:06:16;;;;;;;4.32;1.30;;;7.20;99.90;;;;;;5054921;28;20055;-40
2022/05/30 02:08:43;;;;;;;3.30;1.30;;;8.20;99.90;;;;;;5056248;28;20041;-40
2022/05/30 02:11:10;;;;;;;7.30;2.50;;;7.10;99.90;;;;;;5054780;28;20127;-40
2022/05/30 02:13:37;;;;;;;5.75;1.35;;;8.10;99.90;;;;;;5053439;28;20052;-40
2022/05/30 02:19:04;;;;;;;7.55;1.45;;;7.10;99.90;;;;;;5031546;28;20663;-41
2022/05/30 02:21:34;;;;;;;4.97;1.38;;;7.10;99.90;;;;;;5031432;28;20045;-40
2022/05/30 02:24:02;;;;;;;9.00;1.50;;;7.10;99.90;;;;;;5030615;28;20135;-40
2022/05/30 02:26:30;;;;;;;4.00;1.30;;;7.20;99.90;;;;;;5031252;28;20741;-40
2022/05/30 02:28:55;;;;;;;6.75;1.88;;;7.10;99.90;;;;;;5031597;28;20148;-40
2022/05/30 02:31:21;;;;;;;5.00;1.45;;;7.00;99.90;;;;;;5031459;28;20562;-40
2022/05/30 02:36:41;;;;;;;6.43;1.75;;;8.60;99.90;;;;;;5033572;28;20057;-41
2022/05/30 02:39:16;;;;;;;4.85;1.42;;;6.90;99.90;;;;;;5031139;28;20052;-40
2022/05/30 02:41:44;;;;;;;4.15;1.42;;;7.00;99.90;;;;;;5029542;28;20606;-40
2022/05/30 02:44:10;;;;;;;5.32;1.42;;;8.20;99.90;;;;;;5014633;28;20718;-40
2022/05/30 02:46:39;;;;;;;6.60;1.40;;;6.80;99.90;;;;;;5031778;28;20126;-39
2022/05/30 02:49:05;;;;;;;6.50;1.50;;;8.80;99.90;;;;;;5047449;28;20060;-39
2022/05/30 02:51:31;;;;;;;5.95;1.45;;;7.70;99.90;;;;;;5030317;28;20784;-40
2022/05/30 02:53:57;;;;;;;6.15;1.60;;;6.70;99.90;;;;;;5034296;28;20124;-41
2022/05/30 02:56:24;;;;;;;7.90;1.85;;;6.90;99.90;;;;;;5052408;28;20066;-41
2022/05/30 02:58:51;;;;;;;5.65;1.83;;;7.50;99.90;;;;;;5035240;28;20539;-40
2022/05/30 03:01:17;;;;;;;6.15;1.70;;;7.00;99.90;;;;;;5052053;28;20791;-39
2022/05/30 03:03:43;;;;;;;3.47;1.60;;;7.20;99.90;;;;;;5051930;28;21181;-40
2022/05/30 03:06:09;;;;;;;4.25;1.55;;;7.00;99.90;;;;;;5053520;28;20094;-39
2022/05/30 03:08:35;;;;;;;6.03;1.55;;;8.00;99.90;;;;;;5052977;28;20060;-39
2022/05/30 03:11:01;;;;;;;6.28;1.70;;;6.90;99.90;;;;;;5052770;28;20461;-41
2022/05/30 03:13:29;;;;;;;5.53;1.98;;;6.80;99.90;;;;;;5053060;28;20040;-39
2022/05/30 03:15:55;;;;;;;8.45;1.67;;;6.90;99.90;;;;;;5053223;28;20086;-39
2022/05/30 03:18:21;;;;;;;6.22;1.73;;;6.90;99.90;;;;;;5086377;28;20040;-39
2022/05/30 03:20:48;;;;;;;8.00;3.65;;;6.70;99.90;;;;;;5051985;28;20090;-41
2022/05/30 03:23:14;;;;;;;6.72;1.80;;;6.90;99.90;;;;;;5029268;28;20052;-40
2022/05/30 03:25:40;;;;;;;4.97;1.90;;;6.60;99.90;;;;;;5052031;28;20052;-39
2022/05/30 03:28:07;;;;;;;7.75;2.30;;;6.80;99.90;;;;;;5051283;28;20073;-40
2022/05/30 03:30:36;;;;;;;7.18;2.10;;;6.80;99.90;;;;;;5051558;28;20052;-40
2022/05/30 03:33:07;;;;;;;9.18;2.20;;;6.80;99.90;;;;;;5050666;28;21346;-41
2022/05/30 03:35:36;;;;;;;8.75;2.58;;;6.80;99.90;;;;;;5051566;28;20499;-40
2022/05/30 03:38:03;;;;;;;9.68;2.30;;;7.80;99.90;;;;;;5052849;28;20375;-40
2022/05/30 03:40:28;;;;;;;8.75;2.22;;;7.10;99.90;;;;;;5068276;28;20056;-39
2022/05/30 03:42:56;;;;;;;8.82;1.90;;;7.00;99.90;;;;;;5050811;28;20397;-40
2022/05/30 03:45:22;;;;;;;5.60;2.20;;;6.90;99.90;;;;;;5050609;28;20049;-39
2022/05/30 03:47:50;;;;;;;7.38;2.10;;;7.10;99.90;;;;;;5050764;28;20086;-39
2022/05/30 03:50:23;;;;;;;8.18;2.45;;;7.00;99.90;;;;;;5034330;28;20123;-41
2022/05/30 03:52:50;;;;;;;12.43;4.15;;;8.00;99.90;;;;;;5050587;28;20067;-42
2022/05/30 03:55:19;;;;;;;9.00;1.98;;;7.00;99.90;;;;;;5030576;28;20071;-40
2022/05/30 03:57:45;;;;;;;7.65;2.28;;;8.20;99.90;;;;;;5085451;28;20127;-43
2022/05/30 04:00:21;;;;;;;5.75;2.00;;;7.20;99.90;;;;;;5049843;28;20072;-45
2022/05/30 04:02:48;;;;;;;7.50;3.00;;;7.20;99.90;;;;;;5051706;28;20326;-40
2022/05/30 04:05:16;;;;;;;5.15;1.92;;;7.20;99.90;;;;;;5052582;28;20044;-40
2022/05/30 04:07:46;;;;;;;7.50;1.80;;;7.30;99.90;;;;;;5052336;28;20506;-40
2022/05/30 04:10:12;;;;;;;8.10;2.55;;;7.30;99.90;;;;;;5050953;28;20492;-40
2022/05/30 04:12:38;;;;;;;6.28;2.53;;;7.30;99.90;;;;;;5051350;28;20044;-40
2022/05/30 04:15:08;;;;;;;6.88;2.17;;;7.30;99.90;;;;;;5050801;28;20770;-43
2022/05/30 04:17:35;;;;;;;6.05;2.40;;;7.30;99.90;;;;;;5051371;28;20055;-39
2022/05/30 04:20:01;;;;;;;9.10;2.28;;;7.30;99.90;;;;;;5052084;28;20036;-40
2022/05/30 04:22:29;;;;;;;5.22;2.08;;;7.50;99.90;;;;;;5051382;28;20047;-40
2022/05/30 04:24:55;;;;;;;6.50;2.08;;;7.40;99.90;;;;;;5052007;28;20079;-41
2022/05/30 04:27:22;;;;;;;8.75;2.33;;;7.40;99.90;;;;;;5030213;28;20119;-39
2022/05/30 04:29:49;;;;;;;8.68;2.28;;;7.40;99.90;;;;;;5067703;28;20055;-40
2022/05/30 04:32:16;;;;;;;8.23;2.38;;;8.30;99.90;;;;;;5033912;28;20054;-40
2022/05/30 04:34:42;;;;;;;10.02;2.75;;;7.30;99.90;;;;;;5031658;28;20041;-39
2022/05/30 04:37:08;;;;;;;6.03;2.25;;;7.50;99.90;;;;;;5050840;28;20052;-39
2022/05/30 04:39:34;;;;;;;8.02;2.90;;;7.30;99.90;;;;;;5051675;28;20071;-39
2022/05/30 04:42:00;;;;;;;9.73;3.10;;;8.60;99.90;;;;;;5082926;28;20064;-39
2022/05/30 04:44:27;;;;;;;9.00;2.88;;;8.60;99.90;;;;;;5050007;28;20424;-41
2022/05/30 04:46:54;;;;;;;8.30;2.30;;;7.60;99.90;;;;;;5049633;28;20057;-39
2022/05/30 04:49:21;;;;;;;7.40;2.50;;;7.70;99.90;;;;;;5046419;28;20036;-39
2022/05/30 04:51:49;;;;;;;7.15;2.42;;;7.80;99.90;;;;;;5050268;28;20044;-39
2022/05/30 04:54:15;;;;;;;6.85;2.65;;;8.30;99.90;;;;;;5032931;28;20171;-39
2022/05/30 04:56:41;;;;;;;6.43;2.20;;;8.30;99.90;;;;;;5049841;28;20053;-39
2022/05/30 04:59:08;;;;;;;7.70;2.42;;;8.20;99.90;;;;;;5050901;28;20408;-39
2022/05/30 05:01:34;;;;;;;5.85;2.65;;;8.40;99.90;;;;;;5034050;28;20079;-39
2022/05/30 05:04:04;;;;;;;9.57;2.60;;;9.40;99.90;;;;;;5033230;28;20052;-41
2022/05/30 05:06:30;;;;;;;8.15;2.28;;;9.40;99.90;;;;;;5052539;28;20123;-39
2022/05/30 05:09:04;;;;;;;8.77;2.30;;;8.70;99.90;;;;;;5056787;28;20047;-39
2022/05/30 05:11:33;;;;;;;8.93;2.30;;;8.80;99.90;;;;;;5054007;28;20049;-39
2022/05/30 05:13:59;;;;;;;9.00;2.05;;;9.20;99.90;;;;;;5036577;28;20222;-40
2022/05/30 05:16:27;;;;;;;5.72;1.70;;;10.20;99.90;;;;;;5038502;28;20616;-40
2022/05/30 05:18:53;;;;;;;5.82;1.70;;;10.90;99.90;;;;;;5087376;28;20048;-39
2022/05/30 05:21:25;;;;;;;6.38;1.75;;;9.80;99.90;;;;;;5050553;28;20032;-40
2022/05/30 05:23:51;;;;;;;3.60;1.40;;;10.10;99.90;;;;;;5052877;28;20492;-40
2022/05/30 05:26:19;;;;;;;7.70;1.55;;;10.10;99.90;;;;;;5037192;28;20186;-40
2022/05/30 05:28:46;;;;;;;5.93;1.90;;;10.60;99.90;;;;;;5054806;28;20040;-39
2022/05/30 05:31:16;;;;;;;5.18;1.10;;;11.10;99.90;;;;;;5038043;28;20055;-39
2022/05/30 05:33:44;;;;;;;3.92;1.13;;;12.20;99.90;;;;;;5024051;28;20036;-39
2022/05/30 05:36:09;;;;;;;3.63;1.08;;;11.40;99.90;;;;;;5054288;28;20329;-39
2022/05/30 05:38:35;;;;;;;2.65;1.17;;;10.10;99.90;;;;;;5055634;28;20028;-39
2022/05/30 05:41:01;;;;;;;4.30;1.27;;;10.10;99.90;;;;;;5055072;28;20127;-39
2022/05/30 05:43:26;;;;;;;3.83;1.20;;;10.00;99.90;;;;;;5052775;28;20127;-40
2022/05/30 05:45:52;;;;;;;5.10;1.48;;;12.00;99.90;;;;;;5035529;28;20080;-40
2022/05/30 05:48:18;;;;;;;5.00;1.50;;;12.00;99.90;;;;;;5034251;28;20048;-41
2022/05/30 05:50:44;;;;;;;7.53;1.30;;;12.00;99.90;;;;;;5052253;28;20701;-39
2022/05/30 05:53:11;;;;;;;2.70;1.10;;;9.80;99.90;;;;;;5036834;28;20056;-40
2022/05/30 05:55:37;;;;;;;8.25;1.30;;;10.70;99.90;;;;;;5049258;28;20115;-40
2022/05/30 05:58:06;;;;;;;3.17;1.00;;;11.00;99.90;;;;;;5036727;28;20075;-40
2022/05/30 06:00:33;;;;;;;4.85;1.15;;;11.80;99.90;;;;;;5070166;28;20451;-42
2022/05/30 06:02:58;;;;;;;5.55;1.30;;;13.30;99.90;;;;;;5036257;28;20052;-46
2022/05/30 06:05:25;;;;;;;2.83;0.95;;;11.10;99.90;;;;;;5052886;28;20098;-40
2022/05/30 06:07:51;;;;;;;3.15;0.88;;;11.10;99.90;;;;;;5035251;28;20067;-41
2022/05/30 06:10:18;;;;;;;4.05;0.75;;;11.30;99.90;;;;;;5052445;28;20472;-42
2022/05/30 06:12:46;;;;;;;5.80;0.98;;;11.40;99.90;;;;;;5050882;28;20410;-39
2022/05/30 06:15:16;;;;;;;3.53;0.65;;;11.90;99.90;;;;;;5034896;28;20056;-39
2022/05/30 06:17:43;;;;;;;3.03;0.65;;;12.60;99.90;;;;;;5051547;28;20127;-39
2022/05/30 06:20:13;;;;;;;1.77;0.50;;;14.50;99.90;;;;;;5034498;28;20084;-41
2022/05/30 06:22:39;;;;;;;3.85;0.55;;;14.00;99.90;;;;;;5051868;28;20093;-40
2022/05/30 06:25:06;;;;;;;2.63;0.68;;;13.20;99.90;;;;;;5049930;28;20032;-40
2022/05/30 06:27:32;;;;;;;4.53;0.90;;;13.30;99.90;;;;;;5048666;28;20101;-40
2022/05/30 06:29:58;;;;;;;3.30;0.90;;;13.20;99.90;;;;;;5049831;28;20067;-41
2022/05/30 06:32:24;;;;;;;2.00;0.60;;;12.80;99.90;;;;;;5052228;28;20526;-40
2022/05/30 06:34:51;;;;;;;3.75;0.82;;;12.80;99.90;;;;;;5053369;28;20047;-39
2022/05/30 06:37:16;;;;;;;4.05;0.95;;;12.50;99.90;;;;;;5051303;28;20143;-40
2022/05/30 06:39:42;;;;;;;5.88;1.23;;;14.30;99.90;;;;;;5036894;28;20052;-39
2022/05/30 06:42:10;;;;;;;2.47;0.65;;;12.40;99.90;;;;;;5051842;28;20043;-40
2022/05/30 06:44:38;;;;;;;3.38;1.00;;;12.00;99.90;;;;;;5053330;28;20095;-39
2022/05/30 06:47:05;;;;;;;2.40;0.70;;;12.00;99.90;;;;;;5052767;28;20544;-40
2022/05/30 06:49:31;;;;;;;4.07;1.42;;;12.10;99.90;;;;;;5051387;28;20032;-40
2022/05/30 06:51:57;;;;;;;1.85;0.95;;;13.30;99.90;;;;;;5052288;28;20048;-42
2022/05/30 06:54:23;;;;;;;3.35;0.60;;;12.20;99.90;;;;;;5051576;28;20136;-41
2022/05/30 06:59:34;;;;;;;5.05;0.70;;;11.70;99.90;;;;;;5053532;28;20060;-39
2022/05/30 07:02:01;;;;;;;3.28;0.70;;;11.60;99.90;;;;;;5047531;28;20048;-41
2022/05/30 07:04:31;;;;;;;3.88;0.82;;;11.90;99.90;;;;;;5035750;28;20773;-40
2022/05/30 07:06:57;;;;;;;3.70;0.80;;;12.00;99.90;;;;;;5053060;28;20580;-42
2022/05/30 07:09:22;;;;;;;5.45;0.88;;;13.10;99.90;;;;;;5035947;28;20455;-41
2022/05/30 07:11:49;;;;;;;5.90;0.90;;;14.10;99.90;;;;;;5051923;28;20055;-39
2022/05/30 07:14:17;;;;;;;6.18;0.85;;;12.60;99.90;;;;;;5052004;28;20257;-40
2022/05/30 07:16:43;;;;;;;4.25;1.23;;;12.20;99.90;;;;;;5051755;28;20160;-40
2022/05/30 07:19:09;;;;;;;4.38;0.93;;;12.30;99.90;;;;;;5050966;28;20136;-39
2022/05/30 07:21:36;;;;;;;2.95;0.70;;;14.10;99.90;;;;;;5031796;28;20045;-40
2022/05/30 07:24:02;;;;;;;3.38;0.60;;;12.30;99.90;;;;;;5050688;28;20048;-41
2022/05/30 07:26:29;;;;;;;4.15;0.80;;;12.20;99.90;;;;;;5033761;28;20489;-40
2022/05/30 07:28:55;;;;;;;2.08;0.50;;;12.10;99.90;;;;;;5033089;28;20109;-40
2022/05/30 07:31:22;;;;;;;3.40;0.75;;;13.10;99.90;;;;;;5085927;28;20048;-41
2022/05/30 07:33:49;;;;;;;4.03;1.63;;;10.10;99.90;;;;;;5034955;28;20102;-41
2022/05/30 07:36:24;;;;;;;4.30;0.80;;;12.10;99.90;;;;;;5048993;28;20043;-40
2022/05/30 07:38:51;;;;;;;4.65;0.80;;;13.70;99.90;;;;;;5049620;28;20763;-41
2022/05/30 07:41:18;;;;;;;2.00;0.60;;;11.90;99.90;;;;;;5028833;28;20083;-41
2022/05/30 07:43:45;;;;;;;2.05;0.68;;;12.50;99.90;;;;;;5048852;28;20040;-42
2022/05/30 07:46:14;;;;;;;3.45;0.70;;;12.70;99.90;;;;;;5085447;28;20459;-42
2022/05/30 07:48:40;;;;;;;4.78;0.68;;;13.30;99.90;;;;;;5050764;28;20143;-42
2022/05/30 07:51:07;;;;;;;3.15;0.77;;;13.90;99.90;;;;;;5045028;28;20041;-44
2022/05/30 07:53:34;;;;;;;2.63;0.70;;;15.10;99.90;;;;;;5050480;28;20075;-46
2022/05/30 07:56:00;;;;;;;3.47;0.70;;;17.60;99.90;;;;;;5051913;28;20060;-45
2022/05/30 07:58:26;;;;;;;4.57;0.73;;;17.10;99.90;;;;;;5050279;28;20083;-47
2022/05/30 08:00:52;;;;;;;4.10;0.57;;;19.10;99.90;;;;;;5050403;28;20040;-46
2022/05/30 08:03:18;;;;;;;3.58;0.70;;;19.00;99.90;;;;;;5032924;28;20129;-44
2022/05/30 08:05:45;;;;;;;2.47;0.40;;;19.40;99.90;;;;;;5049355;28;20059;-43
2022/05/30 08:08:11;;;;;;;3.03;0.65;;;17.30;99.90;;;;;;5051679;28;20055;-41
2022/05/30 08:10:37;;;;;;;1.33;0.40;;;17.10;99.90;;;;;;5050819;28;20044;-41
2022/05/30 08:13:04;;;;;;;2.22;0.45;;;14.70;99.90;;;;;;5051519;28;20417;-41
2022/05/30 08:15:30;;;;;;;2.00;0.32;;;14.00;99.90;;;;;;5051581;28;20412;-41
2022/05/30 08:17:58;;;;;;;1.35;0.40;;;13.30;99.90;;;;;;5051101;28;20032;-40
2022/05/30 08:20:26;;;;;;;1.85;0.20;;;12.70;99.90;;;;;;5034620;28;20071;-41
2022/05/30 08:22:52;;;;;;;3.60;0.43;;;12.50;99.90;;;;;;5033608;28;20055;-41
2022/05/30 08:25:21;;;;;;;2.67;0.45;;;12.20;99.90;;;;;;5084836;28;20040;-41
2022/05/30 08:27:47;;;;;;;1.27;0.38;;;12.10;99.90;;;;;;5049758;28;20048;-42
2022/05/30 08:30:18;;;;;;;2.70;0.50;;;11.80;99.90;;;;;;5051124;28;20133;-43
2022/05/30 08:32:46;;;;;;;2.72;0.57;;;12.10;99.90;;;;;;5050527;28;20127;-42
2022/05/30 08:35:16;;;;;;;3.25;0.60;;;14.00;99.90;;;;;;5032879;28;20040;-42
2022/05/30 08:37:42;;;;;;;1.83;0.40;;;12.10;99.90;;;;;;5050718;28;20728;-41
2022/05/30 08:43:03;;;;;;;3.33;0.60;;;12.50;99.90;;;;;;5084348;28;20086;-42
2022/05/30 08:45:29;;;;;;;2.85;0.60;;;12.30;99.90;;;;;;5047464;28;20053;-41
2022/05/30 08:47:58;;;;;;;3.30;0.73;;;13.70;99.90;;;;;;5050222;28;20045;-41
2022/05/30 08:50:39;;;;;;;2.65;0.82;;;14.20;99.90;;;;;;5049987;28;20047;-43
2022/05/30 08:53:36;;;;;;;2.83;0.70;;;12.50;99.90;;;;;;5022436;28;20147;-41
2022/05/30 08:56:24;;;;;;;3.50;0.63;;;12.60;99.90;;;;;;5049498;28;20822;-45
2022/05/30 08:59:24;;;;;;;5.40;1.00;;;12.80;99.90;;;;;;5051311;28;20520;-41
2022/05/30 09:01:58;;;;;;;4.07;0.75;;;12.90;99.90;;;;;;5050129;28;20548;-42
2022/05/30 09:05:13;;;;;;;4.13;0.75;;;12.90;99.90;;;;;;5048809;28;20040;-42
2022/05/30 09:07:49;;;;;;;5.13;0.80;;;13.00;99.90;;;;;;4990807;28;20379;-40
2022/05/30 09:10:27;;;;;;;3.25;0.77;;;13.10;99.90;;;;;;5014753;28;20045;-42
2022/05/30 09:13:00;;;;;;;3.85;0.90;;;13.10;99.90;;;;;;4979810;28;20042;-40
2022/05/30 09:15:34;;;;;;;4.20;1.00;;;15.10;99.90;;;;;;5010715;28;20076;-40
2022/05/30 09:18:22;;;;;;;3.05;0.80;;;14.20;99.90;;;;;;4992948;28;20229;-39
2022/05/30 09:20:49;;;;;;;3.10;0.80;;;15.20;99.90;;;;;;4950953;28;20207;-40
2022/05/30 09:23:18;;;;;;;4.05;0.82;;;13.40;99.90;;;;;;4969514;28;20062;-41
2022/05/30 09:25:55;;;;;;;2.45;0.63;;;13.70;99.90;;;;;;4952164;28;20059;-42
2022/05/30 09:28:21;;;;;;;2.80;0.60;;;13.20;99.90;;;;;;4968142;28;20057;-43
2022/05/30 09:30:54;;;;;;;3.35;1.02;;;13.30;99.90;;;;;;4949770;28;20051;-40
2022/05/30 09:33:32;;;;;;;2.95;0.52;;;15.20;99.90;;;;;;4971198;28;20051;-42
2022/05/30 09:36:19;;;;;;;5.43;0.75;;;13.20;99.90;;;;;;4934126;28;20069;-41
2022/05/30 09:39:00;;;;;;;4.30;0.77;;;13.20;99.90;;;;;;4967563;28;20124;-41
2022/05/30 09:41:31;;;;;;;4.65;0.65;;;13.50;99.90;;;;;;4968545;28;20137;-41
2022/05/30 09:44:01;;;;;;;2.17;0.70;;;13.70;99.90;;;;;;4951889;28;20514;-40
2022/05/30 09:46:37;;;;;;;3.17;0.73;;;14.00;99.90;;;;;;4954454;28;20049;-41
2022/05/30 09:49:19;;;;;;;2.85;0.90;;;14.10;99.90;;;;;;4937203;28;20523;-41
2022/05/30 09:51:48;;;;;;;4.93;1.10;;;15.20;99.90;;;;;;4984454;28;20157;-40
2022/05/30 09:54:40;;;;;;;3.55;0.80;;;14.50;99.90;;;;;;4987814;28;20130;-41
2022/05/30 09:57:12;;;;;;;1.93;0.90;;;14.30;99.90;;;;;;4984291;28;20051;-44
2022/05/30 09:59:41;;;;;;;1.65;0.60;;;15.40;99.90;;;;;;5053082;28;20040;-41
2022/05/30 10:02:29;;;;;;;3.58;0.80;;;15.40;99.90;;;;;;5052688;28;20044;-39
2022/05/30 10:05:21;;;;;;;3.15;0.80;;;13.60;99.90;;;;;;5052223;28;20044;-44
2022/05/30 10:08:00;;;;;;;2.10;0.60;;;13.40;99.90;;;;;;5052699;28;20036;-43
2022/05/30 10:10:36;;;;;;;2.22;0.60;;;14.80;99.90;;;;;;5054340;28;20044;-41
2022/05/30 10:13:10;;;;;;;1.10;0.38;;;13.00;99.90;;;;;;5054924;28;20490;-41
2022/05/30 10:15:42;;;;;;;1.10;0.40;;;12.90;99.90;;;;;;5069363;28;20032;-40
2022/05/30 10:18:10;;;;;;;2.28;0.63;;;14.10;99.90;;;;;;5053187;28;20050;-40
2022/05/30 10:21:14;;;;;;;3.15;0.50;;;12.70;99.90;;;;;;5033897;28;20040;-40
2022/05/30 10:30:28;;;;;;;5.75;0.73;;;11.80;99.90;;;;;;5053380;28;20054;-43
2022/05/30 10:33:45;;;;;;;7.95;1.42;;;12.20;99.90;;;;;;5034476;28;20102;-45
2022/05/30 10:36:58;;;;;;;4.22;1.00;;;11.90;99.90;;;;;;5033177;28;20196;-42
2022/05/30 10:39:38;;;;;;;2.88;0.82;;;11.60;99.90;;;;;;4969038;28;20069;-46
2022/05/30 10:42:08;;;;;;;3.80;0.80;;;11.20;99.90;;;;;;4982980;28;20783;-43
2022/05/30 10:44:45;;;;;;;4.85;0.90;;;11.00;99.90;;;;;;4984542;28;20637;-42
2022/05/30 10:47:18;;;;;;;4.85;0.82;;;10.90;99.90;;;;;;4969078;28;20045;-43
2022/05/30 10:50:07;;;;;;;3.92;0.80;;;11.00;99.90;;;;;;4984850;28;20054;-45
2022/05/30 10:52:41;;;;;;;3.92;0.80;;;10.90;99.90;;;;;;4986690;28;20054;-42
2022/05/30 10:55:17;;;;;;;3.25;1.00;;;13.00;99.90;;;;;;4953440;28;20050;-43
2022/05/30 10:57:50;;;;;;;4.93;1.00;;;11.00;99.90;;;;;;4986260;28;20503;-43
2022/05/30 11:00:25;;;;;;;3.85;0.88;;;12.20;99.90;;;;;;4953094;28;20042;-42
2022/05/30 11:03:15;;;;;;;3.85;1.05;;;11.20;99.90;;;;;;4954549;28;20058;-41
2022/05/30 11:06:01;;;;;;;3.38;1.00;;;13.40;99.90;;;;;;4938106;28;20121;-42
2022/05/30 11:08:37;;;;;;;5.40;1.08;;;12.90;99.90;;;;;;4953650;28;20158;-44
2022/05/30 11:11:12;;;;;;;6.90;1.20;;;11.60;99.90;;;;;;4971157;28;20509;-42
2022/05/30 11:14:07;;;;;;;2.22;0.70;;;13.40;99.90;;;;;;4970566;28;20549;-40
2022/05/30 11:17:02;;;;;;;4.85;1.10;;;12.80;99.90;;;;;;5044533;28;20060;-41
2022/05/30 11:20:00;;;;;;;2.17;0.88;;;10.10;99.90;;;;;;5049170;28;20487;-48
2022/05/30 11:22:42;;;;;;;3.33;1.25;;;12.50;99.90;;;;;;5033252;28;20048;-40
2022/05/30 11:25:12;;;;;;;3.42;0.95;;;13.20;99.90;;;;;;5031279;28;20067;-42
2022/05/30 11:28:00;;;;;;;2.75;0.90;;;14.80;99.90;;;;;;5033467;28;20048;-44
2022/05/30 11:30:44;;;;;;;2.60;0.80;;;13.30;99.90;;;;;;5032988;28;20158;-45
2022/05/30 11:33:37;;;;;;;3.53;0.95;;;13.40;99.90;;;;;;5031659;28;20393;-45
2022/05/30 11:36:21;;;;;;;2.88;1.85;;;13.70;99.90;;;;;;5031788;28;20079;-45
2022/05/30 11:38:55;;;;;;;3.53;0.90;;;13.70;99.90;;;;;;5032381;28;20044;-46
2022/05/30 11:41:50;;;;;;;4.10;0.60;;;13.40;99.90;;;;;;5065907;28;20132;-43
2022/05/30 11:44:15;;;;;;;2.78;0.40;;;13.20;99.90;;;;;;4970899;28;20093;-46
2022/05/30 11:47:20;;;;;;;1.90;0.40;;;15.10;99.90;;;;;;4974288;28;20169;-47
2022/05/30 11:50:11;;;;;;;1.10;0.50;;;12.40;99.90;;;;;;4893730;29;20175;-47
2022/05/30 11:52:39;;;;;;;1.80;0.70;;;12.10;99.90;;;;;;4878888;29;20099;-46
2022/05/30 11:55:35;;;;;;;1.80;0.60;;;12.00;99.90;;;;;;4893071;29;20497;-45
2022/05/30 11:58:14;;;;;;;3.15;0.60;;;11.90;99.90;;;;;;4896005;29;20071;-45
2022/05/30 12:00:45;;;;;;;2.42;0.70;;;11.80;99.90;;;;;;4911633;29;20356;-42
2022/05/30 12:03:26;;;;;;;3.38;0.68;;;12.00;99.90;;;;;;4910648;29;20075;-43
2022/05/30 12:06:09;;;;;;;3.45;0.95;;;13.40;99.90;;;;;;4895071;29;20059;-41
2022/05/30 12:09:06;;;;;;;2.38;0.50;;;12.00;99.90;;;;;;4911225;29;20055;-41
2022/05/30 12:11:34;;;;;;;2.05;0.60;;;12.20;99.90;;;;;;4839507;29;20416;-45
2022/05/30 12:14:19;;;;;;;1.65;0.60;;;12.10;99.90;;;;;;4822723;29;20144;-42
2022/05/30 12:17:36;;;;;;;2.55;0.80;;;12.20;99.90;;;;;;4823392;29;25306;-42
2022/05/30 12:23:48;;;;;;;3.15;0.82;;;12.10;99.90;;;;;;4782257;29;20050;-40
2022/05/30 12:26:14;;;;;;;1.95;0.68;;;14.20;99.90;;;;;;4789614;29;20096;-41
2022/05/30 12:28:40;;;;;;;2.05;0.80;;;14.00;99.90;;;;;;4806971;29;20109;-41
2022/05/30 12:31:08;;;;;;;3.60;0.75;;;12.30;99.90;;;;;;4804462;29;20480;-42
2022/05/30 12:33:33;;;;;;;2.55;0.95;;;13.10;99.90;;;;;;4818760;29;20054;-40
2022/05/30 12:36:08;;;;;;;2.83;0.80;;;13.90;99.90;;;;;;4839391;29;20053;-40
2022/05/30 12:38:53;;;;;;;1.33;0.68;;;14.60;99.90;;;;;;4841004;29;20207;-40
2022/05/30 12:41:54;;;;;;;3.45;0.95;;;12.50;99.90;;;;;;4840258;29;20756;-41
2022/05/30 12:44:48;;;;;;;4.80;1.50;;;12.60;99.90;;;;;;4843384;29;20136;-41
2022/05/30 12:47:20;;;;;;;6.07;1.17;;;12.40;99.90;;;;;;4858867;29;21012;-40
2022/05/30 12:49:49;;;;;;;3.42;0.85;;;14.10;99.90;;;;;;4944601;28;20639;-40
2022/05/30 12:52:39;;;;;;;2.97;0.82;;;13.30;99.90;;;;;;4929092;28;20149;-40
2022/05/30 12:55:10;;;;;;;3.75;1.00;;;13.90;99.90;;;;;;4969127;28;20733;-41
2022/05/30 12:57:43;;;;;;;3.13;0.98;;;12.10;99.90;;;;;;5010398;28;20119;-41
2022/05/30 13:00:43;;;;;;;5.00;0.90;;;12.30;99.90;;;;;;5042200;28;20063;-41
2022/05/30 13:03:28;;;;;;;3.35;1.10;;;13.60;99.90;;;;;;5047978;28;20049;-41
2022/05/30 13:06:16;;;;;;;5.55;1.10;;;13.10;99.90;;;;;;5049408;28;20045;-43
2022/05/30 13:09:18;;;;;;;3.30;1.05;;;12.80;99.90;;;;;;5049248;28;20569;-43
2022/05/30 13:12:17;;;;;;;4.03;1.20;;;13.00;99.90;;;;;;5053236;28;20302;-43
2022/05/30 13:15:01;;;;;;;2.35;0.73;;;13.30;99.90;;;;;;5082554;28;20141;-40
2022/05/30 13:17:59;;;;;;;4.32;0.95;;;13.50;99.90;;;;;;5049429;28;20123;-42
2022/05/30 13:20:41;;;;;;;3.72;1.02;;;13.60;99.90;;;;;;5031455;28;20131;-41
2022/05/30 13:23:07;;;;;;;;;;;13.50;99.90;;;;;;5050254;28;20131;-40
2022/05/30 13:25:36;;;;;;;3.45;0.88;;;13.30;99.90;;;;;;5064339;28;20210;-41
2022/05/30 13:28:09;;;;;;;2.03;0.82;;;13.80;99.90;;;;;;5018177;28;20863;-41
2022/05/30 13:30:37;;;;;;;3.88;0.90;;;13.10;99.90;;;;;;5050441;28;20048;-42
2022/05/30 13:33:20;;;;;;;3.67;0.90;;;14.10;99.90;;;;;;5033425;28;20044;-40
2022/05/30 13:35:49;;;;;;;2.90;1.00;;;13.30;99.90;;;;;;5035969;28;20449;-40
2022/05/30 13:38:15;;;;;;;3.85;0.90;;;12.80;99.90;;;;;;5037074;28;20057;-43
2022/05/30 13:40:41;;;;;;;5.80;1.08;;;13.50;99.90;;;;;;5035187;28;20270;-44
2022/05/30 13:43:09;;;;;;;3.35;0.95;;;14.10;99.90;;;;;;5035655;28;20477;-44